sensor_id;sensor_type;location;lat;lon;timestamp;P1;durP1;ratioP1;P2;durP2;ratioP2
75437;SDS011;64015;49.392;15.582;2023-10-09T00:01:04;12.32;;;5.30;;
75437;SDS011;64015;49.392;15.582;2023-10-09T00:03:50;12.10;;;5.13;;
75437;SDS011;64015;49.392;15.582;2023-10-09T00:06:18;11.07;;;5.22;;
75437;SDS011;64015;49.392;15.582;2023-10-09T00:09:01;10.38;;;5.68;;
75437;SDS011;64015;49.392;15.582;2023-10-09T00:11:37;11.80;;;5.47;;
75437;SDS011;64015;49.392;15.582;2023-10-09T00:14:10;11.70;;;5.53;;
75437;SDS011;64015;49.392;15.582;2023-10-09T00:16:55;10.68;;;5.32;;
75437;SDS011;64015;49.392;15.582;2023-10-09T00:19:58;12.18;;;6.07;;
75437;SDS011;64015;49.392;15.582;2023-10-09T00:25:25;10.10;;;5.45;;
75437;SDS011;64015;49.392;15.582;2023-10-09T00:27:55;11.88;;;6.10;;
75437;SDS011;64015;49.392;15.582;2023-10-09T00:30:25;11.07;;;5.15;;
75437;SDS011;64015;49.392;15.582;2023-10-09T00:32:55;14.30;;;6.18;;
75437;SDS011;64015;49.392;15.582;2023-10-09T00:35:41;11.80;;;5.97;;
75437;SDS011;64015;49.392;15.582;2023-10-09T00:38:09;16.00;;;6.25;;
75437;SDS011;64015;49.392;15.582;2023-10-09T00:40:49;11.90;;;6.07;;
75437;SDS011;64015;49.392;15.582;2023-10-09T00:43:44;11.98;;;6.38;;
75437;SDS011;64015;49.392;15.582;2023-10-09T00:46:09;16.88;;;6.28;;
75437;SDS011;64015;49.392;15.582;2023-10-09T00:48:52;12.93;;;5.22;;
75437;SDS011;64015;49.392;15.582;2023-10-09T00:51:21;10.85;;;5.53;;
75437;SDS011;64015;49.392;15.582;2023-10-09T00:53:55;12.73;;;5.90;;
75437;SDS011;64015;49.392;15.582;2023-10-09T00:56:50;10.82;;;5.90;;
75437;SDS011;64015;49.392;15.582;2023-10-09T01:02:41;11.38;;;5.38;;
75437;SDS011;64015;49.392;15.582;2023-10-09T01:05:30;12.00;;;5.75;;
75437;SDS011;64015;49.392;15.582;2023-10-09T01:08:05;12.48;;;5.82;;
75437;SDS011;64015;49.392;15.582;2023-10-09T01:13:49;9.57;;;4.97;;
75437;SDS011;64015;49.392;15.582;2023-10-09T01:16:15;11.30;;;5.22;;
75437;SDS011;64015;49.392;15.582;2023-10-09T01:18:56;10.32;;;4.88;;
75437;SDS011;64015;49.392;15.582;2023-10-09T01:21:22;12.25;;;5.25;;
75437;SDS011;64015;49.392;15.582;2023-10-09T01:24:12;10.68;;;5.15;;
75437;SDS011;64015;49.392;15.582;2023-10-09T01:26:42;9.98;;;5.22;;
75437;SDS011;64015;49.392;15.582;2023-10-09T01:29:18;10.85;;;5.10;;
75437;SDS011;64015;49.392;15.582;2023-10-09T01:31:46;9.10;;;5.15;;
75437;SDS011;64015;49.392;15.582;2023-10-09T01:34:32;9.38;;;4.97;;
75437;SDS011;64015;49.392;15.582;2023-10-09T01:37:23;9.50;;;5.38;;
75437;SDS011;64015;49.392;15.582;2023-10-09T01:39:57;10.43;;;5.30;;
75437;SDS011;64015;49.392;15.582;2023-10-09T01:42:56;11.35;;;4.75;;
75437;SDS011;64015;49.392;15.582;2023-10-09T01:45:22;9.68;;;4.95;;
75437;SDS011;64015;49.392;15.582;2023-10-09T01:47:54;11.23;;;5.25;;
75437;SDS011;64015;49.392;15.582;2023-10-09T01:50:19;9.23;;;5.18;;
75437;SDS011;64015;49.392;15.582;2023-10-09T01:52:47;10.82;;;5.13;;
75437;SDS011;64015;49.392;15.582;2023-10-09T01:55:13;12.70;;;5.00;;
75437;SDS011;64015;49.392;15.582;2023-10-09T01:57:53;9.93;;;4.18;;
75437;SDS011;64015;49.392;15.582;2023-10-09T02:00:18;8.77;;;4.68;;
75437;SDS011;64015;49.392;15.582;2023-10-09T02:02:49;9.52;;;4.45;;
75437;SDS011;64015;49.392;15.582;2023-10-09T02:05:15;8.50;;;4.10;;
75437;SDS011;64015;49.392;15.582;2023-10-09T02:10:26;9.27;;;4.20;;
75437;SDS011;64015;49.392;15.582;2023-10-09T02:15:26;9.80;;;4.55;;
75437;SDS011;64015;49.392;15.582;2023-10-09T02:18:15;9.57;;;4.65;;
75437;SDS011;64015;49.392;15.582;2023-10-09T02:21:32;9.55;;;4.63;;
75437;SDS011;64015;49.392;15.582;2023-10-09T02:24:05;8.05;;;3.90;;
75437;SDS011;64015;49.392;15.582;2023-10-09T02:27:00;8.82;;;4.15;;
75437;SDS011;64015;49.392;15.582;2023-10-09T02:29:48;10.25;;;4.03;;
75437;SDS011;64015;49.392;15.582;2023-10-09T02:32:17;10.60;;;4.22;;
75437;SDS011;64015;49.392;15.582;2023-10-09T02:35:11;7.25;;;4.35;;
75437;SDS011;64015;49.392;15.582;2023-10-09T02:37:54;8.38;;;4.15;;
75437;SDS011;64015;49.392;15.582;2023-10-09T02:40:26;9.30;;;4.03;;
75437;SDS011;64015;49.392;15.582;2023-10-09T02:42:57;9.65;;;3.95;;
75437;SDS011;64015;49.392;15.582;2023-10-09T02:45:23;8.90;;;4.30;;
75437;SDS011;64015;49.392;15.582;2023-10-09T02:47:50;9.80;;;4.25;;
75437;SDS011;64015;49.392;15.582;2023-10-09T02:50:28;8.10;;;4.00;;
75437;SDS011;64015;49.392;15.582;2023-10-09T02:52:58;9.65;;;4.38;;
75437;SDS011;64015;49.392;15.582;2023-10-09T02:55:34;8.50;;;3.80;;
75437;SDS011;64015;49.392;15.582;2023-10-09T02:58:04;8.40;;;4.00;;
75437;SDS011;64015;49.392;15.582;2023-10-09T03:00:31;7.43;;;3.63;;
75437;SDS011;64015;49.392;15.582;2023-10-09T03:03:02;7.57;;;3.88;;
75437;SDS011;64015;49.392;15.582;2023-10-09T03:05:32;12.02;;;4.78;;
75437;SDS011;64015;49.392;15.582;2023-10-09T03:07:58;9.57;;;4.60;;
75437;SDS011;64015;49.392;15.582;2023-10-09T03:10:24;10.82;;;4.20;;
75437;SDS011;64015;49.392;15.582;2023-10-09T03:12:51;9.38;;;4.78;;
75437;SDS011;64015;49.392;15.582;2023-10-09T03:15:21;8.75;;;4.22;;
75437;SDS011;64015;49.392;15.582;2023-10-09T03:17:47;10.23;;;4.47;;
75437;SDS011;64015;49.392;15.582;2023-10-09T03:20:16;8.95;;;4.30;;
75437;SDS011;64015;49.392;15.582;2023-10-09T03:22:44;7.47;;;4.22;;
75437;SDS011;64015;49.392;15.582;2023-10-09T03:28:00;7.65;;;3.83;;
75437;SDS011;64015;49.392;15.582;2023-10-09T03:30:26;8.23;;;4.22;;
75437;SDS011;64015;49.392;15.582;2023-10-09T03:32:52;8.20;;;3.90;;
75437;SDS011;64015;49.392;15.582;2023-10-09T03:37:56;8.65;;;4.00;;
75437;SDS011;64015;49.392;15.582;2023-10-09T03:40:25;9.63;;;4.30;;
75437;SDS011;64015;49.392;15.582;2023-10-09T03:45:26;7.95;;;3.78;;
75437;SDS011;64015;49.392;15.582;2023-10-09T03:47:56;9.55;;;4.15;;
75437;SDS011;64015;49.392;15.582;2023-10-09T03:50:42;9.45;;;4.38;;
75437;SDS011;64015;49.392;15.582;2023-10-09T03:53:12;13.40;;;4.53;;
75437;SDS011;64015;49.392;15.582;2023-10-09T03:55:38;10.13;;;4.22;;
75437;SDS011;64015;49.392;15.582;2023-10-09T03:58:05;9.13;;;4.60;;
75437;SDS011;64015;49.392;15.582;2023-10-09T04:00:50;9.77;;;4.68;;
75437;SDS011;64015;49.392;15.582;2023-10-09T04:03:18;8.32;;;4.47;;
75437;SDS011;64015;49.392;15.582;2023-10-09T04:05:45;8.77;;;4.70;;
75437;SDS011;64015;49.392;15.582;2023-10-09T04:08:32;13.85;;;4.88;;
75437;SDS011;64015;49.392;15.582;2023-10-09T04:10:58;10.00;;;4.53;;
75437;SDS011;64015;49.392;15.582;2023-10-09T04:13:31;10.70;;;5.03;;
75437;SDS011;64015;49.392;15.582;2023-10-09T04:16:32;7.90;;;3.83;;
75437;SDS011;64015;49.392;15.582;2023-10-09T04:18:58;10.05;;;4.90;;
75437;SDS011;64015;49.392;15.582;2023-10-09T04:21:24;9.23;;;4.57;;
75437;SDS011;64015;49.392;15.582;2023-10-09T04:24:12;10.80;;;4.68;;
75437;SDS011;64015;49.392;15.582;2023-10-09T04:26:41;11.23;;;4.35;;
75437;SDS011;64015;49.392;15.582;2023-10-09T04:29:27;8.60;;;4.07;;
75437;SDS011;64015;49.392;15.582;2023-10-09T04:31:54;9.63;;;4.22;;
75437;SDS011;64015;49.392;15.582;2023-10-09T04:34:26;9.15;;;4.05;;
75437;SDS011;64015;49.392;15.582;2023-10-09T04:37:00;11.50;;;5.10;;
75437;SDS011;64015;49.392;15.582;2023-10-09T04:39:48;9.68;;;4.55;;
75437;SDS011;64015;49.392;15.582;2023-10-09T04:42:17;9.98;;;4.22;;
75437;SDS011;64015;49.392;15.582;2023-10-09T04:45:03;9.90;;;4.30;;
75437;SDS011;64015;49.392;15.582;2023-10-09T04:48:18;8.38;;;3.75;;
75437;SDS011;64015;49.392;15.582;2023-10-09T04:51:28;12.15;;;4.22;;
75437;SDS011;64015;49.392;15.582;2023-10-09T04:54:23;8.40;;;3.80;;
75437;SDS011;64015;49.392;15.582;2023-10-09T04:57:04;10.68;;;4.05;;
75437;SDS011;64015;49.392;15.582;2023-10-09T04:59:55;8.57;;;3.47;;
75437;SDS011;64015;49.392;15.582;2023-10-09T05:02:24;9.07;;;3.90;;
75437;SDS011;64015;49.392;15.582;2023-10-09T05:04:50;6.53;;;3.70;;
75437;SDS011;64015;49.392;15.582;2023-10-09T05:10:58;8.13;;;3.58;;
75437;SDS011;64015;49.392;15.582;2023-10-09T05:19:02;7.78;;;3.03;;
75437;SDS011;64015;49.392;15.582;2023-10-09T05:21:33;9.40;;;3.72;;
75437;SDS011;64015;49.392;15.582;2023-10-09T05:24:18;7.97;;;3.90;;
75437;SDS011;64015;49.392;15.582;2023-10-09T05:29:19;8.70;;;3.60;;
75437;SDS011;64015;49.392;15.582;2023-10-09T05:31:59;7.50;;;3.63;;
75437;SDS011;64015;49.392;15.582;2023-10-09T05:34:32;8.73;;;3.28;;
75437;SDS011;64015;49.392;15.582;2023-10-09T05:37:02;8.77;;;3.78;;
75437;SDS011;64015;49.392;15.582;2023-10-09T05:39:48;7.68;;;3.45;;
75437;SDS011;64015;49.392;15.582;2023-10-09T05:42:32;7.55;;;3.25;;
75437;SDS011;64015;49.392;15.582;2023-10-09T05:45:11;7.30;;;3.15;;
75437;SDS011;64015;49.392;15.582;2023-10-09T05:47:51;7.03;;;3.30;;
75437;SDS011;64015;49.392;15.582;2023-10-09T05:50:23;6.40;;;3.35;;
75437;SDS011;64015;49.392;15.582;2023-10-09T05:52:53;6.90;;;3.05;;
75437;SDS011;64015;49.392;15.582;2023-10-09T05:55:20;8.38;;;3.90;;
75437;SDS011;64015;49.392;15.582;2023-10-09T05:57:50;8.50;;;3.53;;
75437;SDS011;64015;49.392;15.582;2023-10-09T06:00:34;5.97;;;3.05;;
75437;SDS011;64015;49.392;15.582;2023-10-09T06:03:19;6.70;;;2.97;;
75437;SDS011;64015;49.392;15.582;2023-10-09T06:05:47;7.03;;;3.05;;
75437;SDS011;64015;49.392;15.582;2023-10-09T06:08:44;5.40;;;2.88;;
75437;SDS011;64015;49.392;15.582;2023-10-09T06:11:10;4.53;;;2.22;;
75437;SDS011;64015;49.392;15.582;2023-10-09T06:13:57;4.75;;;2.15;;
75437;SDS011;64015;49.392;15.582;2023-10-09T06:16:30;5.90;;;2.38;;
75437;SDS011;64015;49.392;15.582;2023-10-09T06:19:09;6.13;;;2.42;;
75437;SDS011;64015;49.392;15.582;2023-10-09T06:21:49;3.97;;;1.98;;
75437;SDS011;64015;49.392;15.582;2023-10-09T06:24:18;8.38;;;2.63;;
75437;SDS011;64015;49.392;15.582;2023-10-09T06:26:44;8.80;;;3.28;;
75437;SDS011;64015;49.392;15.582;2023-10-09T06:29:38;6.22;;;2.85;;
75437;SDS011;64015;49.392;15.582;2023-10-09T06:32:11;4.75;;;2.72;;
75437;SDS011;64015;49.392;15.582;2023-10-09T06:34:59;4.88;;;2.58;;
75437;SDS011;64015;49.392;15.582;2023-10-09T06:37:50;7.43;;;2.80;;
75437;SDS011;64015;49.392;15.582;2023-10-09T06:40:49;6.35;;;2.40;;
75437;SDS011;64015;49.392;15.582;2023-10-09T06:43:36;5.75;;;2.50;;
75437;SDS011;64015;49.392;15.582;2023-10-09T06:46:02;8.77;;;2.50;;
75437;SDS011;64015;49.392;15.582;2023-10-09T06:48:47;7.00;;;2.50;;
75437;SDS011;64015;49.392;15.582;2023-10-09T06:51:34;7.72;;;3.20;;
75437;SDS011;64015;49.392;15.582;2023-10-09T06:54:06;7.63;;;2.50;;
75437;SDS011;64015;49.392;15.582;2023-10-09T06:56:37;8.75;;;3.17;;
75437;SDS011;64015;49.392;15.582;2023-10-09T06:59:04;4.95;;;2.60;;
75437;SDS011;64015;49.392;15.582;2023-10-09T07:01:53;5.57;;;2.60;;
75437;SDS011;64015;49.392;15.582;2023-10-09T07:04:37;7.25;;;2.92;;
75437;SDS011;64015;49.392;15.582;2023-10-09T07:07:03;5.40;;;2.35;;
75437;SDS011;64015;49.392;15.582;2023-10-09T07:09:49;6.95;;;3.17;;
75437;SDS011;64015;49.392;15.582;2023-10-09T07:12:34;6.00;;;3.00;;
75437;SDS011;64015;49.392;15.582;2023-10-09T07:15:08;5.72;;;2.35;;
75437;SDS011;64015;49.392;15.582;2023-10-09T07:17:34;5.55;;;2.35;;
75437;SDS011;64015;49.392;15.582;2023-10-09T07:19:59;7.30;;;2.78;;
75437;SDS011;64015;49.392;15.582;2023-10-09T07:23:04;5.30;;;2.90;;
75437;SDS011;64015;49.392;15.582;2023-10-09T07:25:43;8.75;;;3.05;;
75437;SDS011;64015;49.392;15.582;2023-10-09T07:28:21;5.38;;;2.72;;
75437;SDS011;64015;49.392;15.582;2023-10-09T07:30:55;6.78;;;2.88;;
75437;SDS011;64015;49.392;15.582;2023-10-09T07:33:23;4.82;;;2.25;;
75437;SDS011;64015;49.392;15.582;2023-10-09T07:36:00;6.63;;;2.63;;
75437;SDS011;64015;49.392;15.582;2023-10-09T07:38:31;5.68;;;2.30;;
75437;SDS011;64015;49.392;15.582;2023-10-09T07:41:10;6.03;;;2.97;;
75437;SDS011;64015;49.392;15.582;2023-10-09T07:43:36;4.68;;;2.70;;
75437;SDS011;64015;49.392;15.582;2023-10-09T07:46:17;5.80;;;2.42;;
75437;SDS011;64015;49.392;15.582;2023-10-09T07:48:59;7.18;;;2.83;;
75437;SDS011;64015;49.392;15.582;2023-10-09T07:51:37;7.10;;;2.45;;
75437;SDS011;64015;49.392;15.582;2023-10-09T07:54:10;4.13;;;2.08;;
75437;SDS011;64015;49.392;15.582;2023-10-09T07:56:40;6.63;;;2.55;;
75437;SDS011;64015;49.392;15.582;2023-10-09T07:59:07;8.48;;;2.58;;
75437;SDS011;64015;49.392;15.582;2023-10-09T08:01:37;7.80;;;2.70;;
75437;SDS011;64015;49.392;15.582;2023-10-09T08:04:17;5.97;;;2.70;;
75437;SDS011;64015;49.392;15.582;2023-10-09T08:06:46;5.28;;;2.88;;
75437;SDS011;64015;49.392;15.582;2023-10-09T08:09:12;5.43;;;2.38;;
75437;SDS011;64015;49.392;15.582;2023-10-09T08:11:48;7.60;;;2.78;;
75437;SDS011;64015;49.392;15.582;2023-10-09T08:14:40;9.43;;;3.40;;
75437;SDS011;64015;49.392;15.582;2023-10-09T08:17:22;7.40;;;3.28;;
75437;SDS011;64015;49.392;15.582;2023-10-09T08:19:52;5.53;;;3.08;;
75437;SDS011;64015;49.392;15.582;2023-10-09T08:22:27;5.55;;;3.28;;
75437;SDS011;64015;49.392;15.582;2023-10-09T08:24:54;11.95;;;3.70;;
75437;SDS011;64015;49.392;15.582;2023-10-09T08:27:23;9.20;;;3.90;;
75437;SDS011;64015;49.392;15.582;2023-10-09T08:29:56;7.45;;;3.47;;
75437;SDS011;64015;49.392;15.582;2023-10-09T08:32:49;10.48;;;3.30;;
75437;SDS011;64015;49.392;15.582;2023-10-09T08:35:31;7.72;;;3.55;;
75437;SDS011;64015;49.392;15.582;2023-10-09T08:37:59;12.57;;;3.20;;
75437;SDS011;64015;49.392;15.582;2023-10-09T08:40:47;6.50;;;3.15;;
75437;SDS011;64015;49.392;15.582;2023-10-09T08:43:25;7.93;;;3.53;;
75437;SDS011;64015;49.392;15.582;2023-10-09T08:45:54;7.18;;;3.72;;
75437;SDS011;64015;49.392;15.582;2023-10-09T08:48:26;7.05;;;3.50;;
75437;SDS011;64015;49.392;15.582;2023-10-09T08:50:54;8.35;;;3.90;;
75437;SDS011;64015;49.392;15.582;2023-10-09T08:53:21;8.45;;;3.55;;
75437;SDS011;64015;49.392;15.582;2023-10-09T08:55:49;9.25;;;3.42;;
75437;SDS011;64015;49.392;15.582;2023-10-09T08:58:17;8.00;;;3.83;;
75437;SDS011;64015;49.392;15.582;2023-10-09T09:00:56;9.75;;;4.63;;
75437;SDS011;64015;49.392;15.582;2023-10-09T09:03:38;7.85;;;3.58;;
75437;SDS011;64015;49.392;15.582;2023-10-09T09:06:06;8.45;;;4.05;;
75437;SDS011;64015;49.392;15.582;2023-10-09T09:08:32;11.32;;;4.57;;
75437;SDS011;64015;49.392;15.582;2023-10-09T09:11:03;13.93;;;4.85;;
75437;SDS011;64015;49.392;15.582;2023-10-09T09:16:54;9.90;;;4.28;;
75437;SDS011;64015;49.392;15.582;2023-10-09T09:19:30;9.77;;;4.72;;
75437;SDS011;64015;49.392;15.582;2023-10-09T09:22:19;8.88;;;4.05;;
75437;SDS011;64015;49.392;15.582;2023-10-09T09:24:58;8.45;;;4.30;;
75437;SDS011;64015;49.392;15.582;2023-10-09T09:27:46;10.45;;;4.53;;
75437;SDS011;64015;49.392;15.582;2023-10-09T09:32:50;10.80;;;4.80;;
75437;SDS011;64015;49.392;15.582;2023-10-09T09:35:38;9.70;;;4.40;;
75437;SDS011;64015;49.392;15.582;2023-10-09T09:38:04;11.52;;;4.68;;
75437;SDS011;64015;49.392;15.582;2023-10-09T09:40:34;10.35;;;5.20;;
75437;SDS011;64015;49.392;15.582;2023-10-09T09:43:08;12.48;;;5.18;;
75437;SDS011;64015;49.392;15.582;2023-10-09T09:45:46;9.02;;;5.03;;
75437;SDS011;64015;49.392;15.582;2023-10-09T09:48:15;12.05;;;5.40;;
75437;SDS011;64015;49.392;15.582;2023-10-09T09:50:42;12.20;;;4.85;;
75437;SDS011;64015;49.392;15.582;2023-10-09T09:53:16;14.32;;;5.93;;
75437;SDS011;64015;49.392;15.582;2023-10-09T09:55:52;14.98;;;5.75;;
75437;SDS011;64015;49.392;15.582;2023-10-09T09:58:31;12.82;;;5.65;;
75437;SDS011;64015;49.392;15.582;2023-10-09T10:01:13;12.50;;;5.78;;
75437;SDS011;64015;49.392;15.582;2023-10-09T10:03:51;11.32;;;5.15;;
75437;SDS011;64015;49.392;15.582;2023-10-09T10:06:23;13.80;;;6.35;;
75437;SDS011;64015;49.392;15.582;2023-10-09T10:08:53;16.67;;;6.80;;
75437;SDS011;64015;49.392;15.582;2023-10-09T10:14:14;17.98;;;7.20;;
75437;SDS011;64015;49.392;15.582;2023-10-09T10:17:06;13.18;;;6.03;;
75437;SDS011;64015;49.392;15.582;2023-10-09T10:22:26;12.57;;;5.60;;
75437;SDS011;64015;49.392;15.582;2023-10-09T10:27:25;11.32;;;6.05;;
75437;SDS011;64015;49.392;15.582;2023-10-09T10:32:54;16.55;;;7.22;;
75437;SDS011;64015;49.392;15.582;2023-10-09T10:35:22;15.75;;;7.85;;
75437;SDS011;64015;49.392;15.582;2023-10-09T10:41:10;17.65;;;6.43;;
75437;SDS011;64015;49.392;15.582;2023-10-09T10:43:44;12.40;;;5.70;;
75437;SDS011;64015;49.392;15.582;2023-10-09T10:46:18;12.45;;;5.88;;
75437;SDS011;64015;49.392;15.582;2023-10-09T10:51:37;12.75;;;4.93;;
75437;SDS011;64015;49.392;15.582;2023-10-09T10:54:05;11.65;;;4.80;;
75437;SDS011;64015;49.392;15.582;2023-10-09T10:56:50;14.10;;;5.32;;
75437;SDS011;64015;49.392;15.582;2023-10-09T10:59:17;11.60;;;5.28;;
75437;SDS011;64015;49.392;15.582;2023-10-09T11:01:53;13.38;;;5.35;;
75437;SDS011;64015;49.392;15.582;2023-10-09T11:04:25;13.88;;;5.32;;
75437;SDS011;64015;49.392;15.582;2023-10-09T11:06:55;13.32;;;5.55;;
75437;SDS011;64015;49.392;15.582;2023-10-09T11:12:31;11.27;;;4.97;;
75437;SDS011;64015;49.392;15.582;2023-10-09T11:15:04;9.23;;;4.72;;
75437;SDS011;64015;49.392;15.582;2023-10-09T11:17:31;11.07;;;5.03;;
75437;SDS011;64015;49.392;15.582;2023-10-09T11:20:00;9.57;;;5.40;;
75437;SDS011;64015;49.392;15.582;2023-10-09T11:22:48;11.90;;;5.18;;
75437;SDS011;64015;49.392;15.582;2023-10-09T11:25:34;9.90;;;4.72;;
75437;SDS011;64015;49.392;15.582;2023-10-09T11:30:46;13.88;;;5.32;;
75437;SDS011;64015;49.392;15.582;2023-10-09T11:33:12;12.45;;;5.78;;
75437;SDS011;64015;49.392;15.582;2023-10-09T11:35:41;13.50;;;5.47;;
75437;SDS011;64015;49.392;15.582;2023-10-09T11:41:11;13.13;;;5.13;;
75437;SDS011;64015;49.392;15.582;2023-10-09T11:43:47;12.05;;;5.82;;
75437;SDS011;64015;49.392;15.582;2023-10-09T11:46:17;14.55;;;6.03;;
75437;SDS011;64015;49.392;15.582;2023-10-09T11:49:08;13.55;;;5.90;;
75437;SDS011;64015;49.392;15.582;2023-10-09T11:52:05;15.02;;;6.40;;
75437;SDS011;64015;49.392;15.582;2023-10-09T11:54:37;15.48;;;5.75;;
75437;SDS011;64015;49.392;15.582;2023-10-09T11:57:03;13.55;;;6.43;;
75437;SDS011;64015;49.392;15.582;2023-10-09T11:59:30;11.85;;;5.72;;
75437;SDS011;64015;49.392;15.582;2023-10-09T12:02:07;14.30;;;6.00;;
75437;SDS011;64015;49.392;15.582;2023-10-09T12:04:38;13.55;;;5.78;;
75437;SDS011;64015;49.392;15.582;2023-10-09T12:07:08;11.63;;;5.85;;
75437;SDS011;64015;49.392;15.582;2023-10-09T12:09:35;15.23;;;7.22;;
75437;SDS011;64015;49.392;15.582;2023-10-09T12:12:02;13.95;;;5.65;;
75437;SDS011;64015;49.392;15.582;2023-10-09T12:17:07;12.15;;;5.78;;
75437;SDS011;64015;49.392;15.582;2023-10-09T12:19:36;18.05;;;6.68;;
75437;SDS011;64015;49.392;15.582;2023-10-09T12:22:04;15.43;;;6.63;;
75437;SDS011;64015;49.392;15.582;2023-10-09T12:24:31;18.15;;;7.25;;
75437;SDS011;64015;49.392;15.582;2023-10-09T12:27:00;15.38;;;6.82;;
75437;SDS011;64015;49.392;15.582;2023-10-09T12:29:26;16.17;;;6.53;;
75437;SDS011;64015;49.392;15.582;2023-10-09T12:31:58;15.10;;;7.32;;
75437;SDS011;64015;49.392;15.582;2023-10-09T12:34:24;14.27;;;6.88;;
75437;SDS011;64015;49.392;15.582;2023-10-09T12:36:54;13.38;;;6.55;;
75437;SDS011;64015;49.392;15.582;2023-10-09T12:39:20;14.77;;;6.40;;
75437;SDS011;64015;49.392;15.582;2023-10-09T12:41:47;13.05;;;6.38;;
75437;SDS011;64015;49.392;15.582;2023-10-09T12:44:13;16.13;;;6.65;;
75437;SDS011;64015;49.392;15.582;2023-10-09T12:46:40;12.98;;;7.50;;
75437;SDS011;64015;49.392;15.582;2023-10-09T12:51:45;14.85;;;6.28;;
75437;SDS011;64015;49.392;15.582;2023-10-09T12:54:10;11.10;;;5.50;;
75437;SDS011;64015;49.392;15.582;2023-10-09T12:56:40;12.85;;;6.07;;
75437;SDS011;64015;49.392;15.582;2023-10-09T12:59:05;15.15;;;6.32;;
75437;SDS011;64015;49.392;15.582;2023-10-09T13:01:40;16.63;;;6.43;;
75437;SDS011;64015;49.392;15.582;2023-10-09T13:04:13;14.80;;;6.43;;
75437;SDS011;64015;49.392;15.582;2023-10-09T13:06:43;13.02;;;5.68;;
75437;SDS011;64015;49.392;15.582;2023-10-09T13:09:14;13.45;;;5.95;;
75437;SDS011;64015;49.392;15.582;2023-10-09T13:11:41;11.98;;;6.13;;
75437;SDS011;64015;49.392;15.582;2023-10-09T13:14:08;13.02;;;6.53;;
75437;SDS011;64015;49.392;15.582;2023-10-09T13:16:43;13.75;;;5.40;;
75437;SDS011;64015;49.392;15.582;2023-10-09T13:19:08;11.32;;;5.20;;
75437;SDS011;64015;49.392;15.582;2023-10-09T13:21:37;9.85;;;5.30;;
75437;SDS011;64015;49.392;15.582;2023-10-09T13:24:07;13.77;;;5.40;;
75437;SDS011;64015;49.392;15.582;2023-10-09T13:26:42;14.45;;;6.57;;
75437;SDS011;64015;49.392;15.582;2023-10-09T13:29:14;12.35;;;5.50;;
75437;SDS011;64015;49.392;15.582;2023-10-09T13:31:48;8.35;;;4.75;;
75437;SDS011;64015;49.392;15.582;2023-10-09T13:34:16;12.07;;;5.43;;
75437;SDS011;64015;49.392;15.582;2023-10-09T13:36:42;10.95;;;5.28;;
75437;SDS011;64015;49.392;15.582;2023-10-09T13:39:18;9.77;;;4.60;;
75437;SDS011;64015;49.392;15.582;2023-10-09T13:41:45;9.05;;;4.72;;
75437;SDS011;64015;49.392;15.582;2023-10-09T13:44:11;12.18;;;4.30;;
75437;SDS011;64015;49.392;15.582;2023-10-09T13:46:42;11.90;;;4.78;;
75437;SDS011;64015;49.392;15.582;2023-10-09T13:49:08;9.93;;;4.07;;
75437;SDS011;64015;49.392;15.582;2023-10-09T13:54:33;7.00;;;3.88;;
75437;SDS011;64015;49.392;15.582;2023-10-09T13:56:59;8.02;;;4.35;;
75437;SDS011;64015;49.392;15.582;2023-10-09T13:59:34;7.18;;;3.88;;
75437;SDS011;64015;49.392;15.582;2023-10-09T14:02:01;9.95;;;4.03;;
75437;SDS011;64015;49.392;15.582;2023-10-09T14:04:57;8.40;;;4.05;;
75437;SDS011;64015;49.392;15.582;2023-10-09T14:07:44;6.97;;;3.33;;
75437;SDS011;64015;49.392;15.582;2023-10-09T14:10:19;8.63;;;3.83;;
75437;SDS011;64015;49.392;15.582;2023-10-09T14:12:52;9.80;;;3.90;;
75437;SDS011;64015;49.392;15.582;2023-10-09T14:15:19;6.88;;;3.33;;
75437;SDS011;64015;49.392;15.582;2023-10-09T14:17:45;7.95;;;3.85;;
75437;SDS011;64015;49.392;15.582;2023-10-09T14:20:21;7.20;;;3.50;;
75437;SDS011;64015;49.392;15.582;2023-10-09T14:23:05;7.20;;;3.08;;
75437;SDS011;64015;49.392;15.582;2023-10-09T14:25:47;9.40;;;3.03;;
75437;SDS011;64015;49.392;15.582;2023-10-09T14:28:15;9.75;;;3.47;;
75437;SDS011;64015;49.392;15.582;2023-10-09T14:30:44;6.53;;;3.13;;
75437;SDS011;64015;49.392;15.582;2023-10-09T14:33:14;7.95;;;3.20;;
75437;SDS011;64015;49.392;15.582;2023-10-09T14:35:48;8.13;;;3.45;;
75437;SDS011;64015;49.392;15.582;2023-10-09T14:38:14;9.35;;;4.00;;
75437;SDS011;64015;49.392;15.582;2023-10-09T14:40:45;9.20;;;3.42;;
75437;SDS011;64015;49.392;15.582;2023-10-09T14:43:22;9.43;;;3.47;;
75437;SDS011;64015;49.392;15.582;2023-10-09T14:46:12;8.02;;;3.30;;
75437;SDS011;64015;49.392;15.582;2023-10-09T14:48:40;8.38;;;3.33;;
75437;SDS011;64015;49.392;15.582;2023-10-09T14:51:06;8.13;;;3.22;;
75437;SDS011;64015;49.392;15.582;2023-10-09T14:53:36;11.25;;;3.63;;
75437;SDS011;64015;49.392;15.582;2023-10-09T14:56:02;8.57;;;3.20;;
75437;SDS011;64015;49.392;15.582;2023-10-09T15:01:10;8.18;;;3.60;;
75437;SDS011;64015;49.392;15.582;2023-10-09T15:03:38;8.48;;;3.53;;
75437;SDS011;64015;49.392;15.582;2023-10-09T15:06:04;8.10;;;3.47;;
75437;SDS011;64015;49.392;15.582;2023-10-09T15:08:34;7.47;;;3.10;;
75437;SDS011;64015;49.392;15.582;2023-10-09T15:11:00;8.13;;;3.10;;
75437;SDS011;64015;49.392;15.582;2023-10-09T15:13:26;9.93;;;3.30;;
75437;SDS011;64015;49.392;15.582;2023-10-09T15:15:53;7.50;;;3.25;;
75437;SDS011;64015;49.392;15.582;2023-10-09T15:18:41;8.07;;;3.17;;
75437;SDS011;64015;49.392;15.582;2023-10-09T15:21:06;10.43;;;3.30;;
75437;SDS011;64015;49.392;15.582;2023-10-09T15:23:34;8.35;;;3.33;;
75437;SDS011;64015;49.392;15.582;2023-10-09T15:26:01;9.23;;;2.92;;
75437;SDS011;64015;49.392;15.582;2023-10-09T15:28:27;9.57;;;3.75;;
75437;SDS011;64015;49.392;15.582;2023-10-09T15:30:58;11.23;;;3.58;;
75437;SDS011;64015;49.392;15.582;2023-10-09T15:33:25;12.52;;;3.80;;
75437;SDS011;64015;49.392;15.582;2023-10-09T15:35:56;11.48;;;4.03;;
75437;SDS011;64015;49.392;15.582;2023-10-09T15:38:22;11.35;;;3.80;;
75437;SDS011;64015;49.392;15.582;2023-10-09T15:40:50;13.75;;;4.35;;
75437;SDS011;64015;49.392;15.582;2023-10-09T15:43:16;9.85;;;3.63;;
75437;SDS011;64015;49.392;15.582;2023-10-09T15:45:42;10.23;;;4.28;;
75437;SDS011;64015;49.392;15.582;2023-10-09T15:48:14;8.57;;;3.83;;
75437;SDS011;64015;49.392;15.582;2023-10-09T15:50:44;10.98;;;4.22;;
75437;SDS011;64015;49.392;15.582;2023-10-09T15:53:14;8.32;;;3.60;;
75437;SDS011;64015;49.392;15.582;2023-10-09T15:55:57;10.90;;;3.72;;
75437;SDS011;64015;49.392;15.582;2023-10-09T15:58:23;9.35;;;4.00;;
75437;SDS011;64015;49.392;15.582;2023-10-09T16:00:49;9.05;;;4.38;;
75437;SDS011;64015;49.392;15.582;2023-10-09T16:03:15;10.40;;;4.70;;
75437;SDS011;64015;49.392;15.582;2023-10-09T16:05:41;9.93;;;4.18;;
75437;SDS011;64015;49.392;15.582;2023-10-09T16:08:07;14.07;;;4.72;;
75437;SDS011;64015;49.392;15.582;2023-10-09T16:10:33;10.23;;;4.82;;
75437;SDS011;64015;49.392;15.582;2023-10-09T16:13:00;9.77;;;3.85;;
75437;SDS011;64015;49.392;15.582;2023-10-09T16:15:29;8.65;;;3.70;;
75437;SDS011;64015;49.392;15.582;2023-10-09T16:17:55;7.80;;;3.67;;
75437;SDS011;64015;49.392;15.582;2023-10-09T16:20:24;9.68;;;4.22;;
75437;SDS011;64015;49.392;15.582;2023-10-09T16:22:51;7.68;;;3.50;;
75437;SDS011;64015;49.392;15.582;2023-10-09T16:25:17;8.10;;;3.83;;